Time;durP1;ratioP1;P1;durP2;ratioP2;P2;SDS_P1;SDS_P2;PMS_P1;PMS_P2;Temp;Humidity;BMP_temperature;BMP_pressure;BME280_temperature;BME280_humidity;BME280_pressure;Samples;Min_cycle;Max_cycle;Signal;HPM_P1;HPM_P2
2021/01/14 00:00:40;;;;;;;3.60;1.15;;;0.80;99.90;;;;;;5032920;28;20109;-78
2021/01/14 00:03:12;;;;;;;5.28;0.82;;;0.80;99.90;;;;;;5032858;28;20128;-78
2021/01/14 00:05:39;;;;;;;4.10;1.00;;;0.80;99.90;;;;;;5034812;28;20049;-77
2021/01/14 00:08:06;;;;;;;11.05;1.63;;;0.80;99.90;;;;;;5034113;28;20501;-77
2021/01/14 00:10:33;;;;;;;6.38;1.13;;;0.80;99.90;;;;;;5034748;28;20096;-78
2021/01/14 00:12:59;;;;;;;2.35;0.90;;;0.80;99.90;;;;;;5034209;28;20132;-78
2021/01/14 00:15:25;;;;;;;5.45;1.00;;;0.90;99.90;;;;;;5035618;28;20480;-77
2021/01/14 00:17:52;;;;;;;12.45;0.90;;;0.80;99.90;;;;;;5033832;28;20144;-78
2021/01/14 00:20:20;;;;;;;2.45;0.90;;;0.80;99.90;;;;;;5034158;28;20049;-78
2021/01/14 00:22:46;;;;;;;3.53;1.13;;;0.80;99.90;;;;;;5034519;28;20045;-77
2021/01/14 00:25:16;;;;;;;5.07;0.82;;;0.80;99.90;;;;;;5034623;28;20053;-78
2021/01/14 00:27:44;;;;;;;12.77;0.98;;;0.70;99.90;;;;;;5034837;28;20060;-78
2021/01/14 00:30:14;;;;;;;2.33;0.65;;;0.70;99.90;;;;;;5034353;28;20057;-77
2021/01/14 00:32:41;;;;;;;4.43;0.65;;;0.70;99.90;;;;;;5035667;28;20049;-77
2021/01/14 00:35:08;;;;;;;8.38;1.02;;;0.70;99.90;;;;;;5035158;28;20045;-78
2021/01/14 00:37:50;;;;;;;2.95;0.50;;;0.70;99.90;;;;;;5038486;28;20045;-78
2021/01/14 00:40:25;;;;;;;2.60;0.73;;;0.70;99.90;;;;;;5038659;28;20490;-78
2021/01/14 00:43:00;;;;;;;5.55;0.95;;;0.70;99.90;;;;;;5038337;28;20045;-78
2021/01/14 00:45:28;;;;;;;4.43;0.80;;;0.70;99.90;;;;;;5039178;28;20053;-78
2021/01/14 00:47:54;;;;;;;2.70;0.90;;;0.70;99.90;;;;;;5038624;28;20541;-79
2021/01/14 00:50:21;;;;;;;3.90;1.00;;;0.70;99.90;;;;;;5038589;28;20124;-78
2021/01/14 00:52:48;;;;;;;5.60;0.80;;;0.70;99.90;;;;;;5036546;28;20132;-78
2021/01/14 00:55:15;;;;;;;5.70;0.77;;;0.70;99.90;;;;;;5037556;28;20081;-78
2021/01/14 00:57:43;;;;;;;1.50;0.40;;;0.70;99.90;;;;;;5036314;28;20468;-78
2021/01/14 01:00:12;;;;;;;4.50;0.88;;;0.70;99.90;;;;;;5037745;28;20556;-78
2021/01/14 01:02:45;;;;;;;8.07;0.80;;;0.70;99.90;;;;;;5037895;28;20050;-78
2021/01/14 01:05:13;;;;;;;3.25;0.88;;;0.60;99.90;;;;;;5037177;28;20246;-78
2021/01/14 01:07:46;;;;;;;5.90;0.57;;;0.70;99.90;;;;;;5037918;28;20049;-78
2021/01/14 01:10:12;;;;;;;4.78;0.95;;;0.60;99.90;;;;;;5037300;28;20096;-78
2021/01/14 01:12:39;;;;;;;4.38;0.85;;;0.60;99.90;;;;;;5037668;28;20050;-78
2021/01/14 01:15:05;;;;;;;5.90;0.60;;;0.70;99.90;;;;;;5036931;28;20478;-77
2021/01/14 01:17:32;;;;;;;3.60;0.55;;;0.60;99.90;;;;;;5037360;28;20099;-78
2021/01/14 01:19:59;;;;;;;2.22;0.57;;;0.70;99.90;;;;;;5036800;28;20099;-78
2021/01/14 01:22:26;;;;;;;3.45;0.63;;;0.70;99.90;;;;;;5036895;28;20120;-78
2021/01/14 01:24:52;;;;;;;2.80;0.43;;;0.80;99.90;;;;;;5037197;28;20156;-78
2021/01/14 01:27:18;;;;;;;2.65;0.50;;;0.70;99.90;;;;;;5036727;28;20140;-78
2021/01/14 01:29:44;;;;;;;2.72;0.60;;;0.80;99.90;;;;;;5037929;28;20053;-78
2021/01/14 01:32:11;;;;;;;4.78;0.88;;;0.70;99.90;;;;;;5036505;28;20140;-77
2021/01/14 01:34:37;;;;;;;1.45;0.50;;;0.70;99.90;;;;;;5036150;28;20132;-78
2021/01/14 01:37:03;;;;;;;2.25;0.55;;;0.80;99.90;;;;;;5038033;28;20045;-78
2021/01/14 01:39:30;;;;;;;2.55;0.77;;;0.70;99.90;;;;;;5036942;28;20101;-78
2021/01/14 01:41:57;;;;;;;3.28;0.77;;;0.70;99.90;;;;;;5037416;28;20057;-78
2021/01/14 01:44:25;;;;;;;4.28;0.52;;;0.70;99.90;;;;;;5035487;28;20053;-78
2021/01/14 01:46:55;;;;;;;5.93;0.85;;;0.70;99.90;;;;;;5035055;28;20099;-78
2021/01/14 01:49:22;;;;;;;2.10;0.38;;;0.70;99.90;;;;;;5033065;28;20085;-78
2021/01/14 01:51:52;;;;;;;2.97;0.68;;;0.80;99.90;;;;;;5035663;28;20124;-78
2021/01/14 01:54:19;;;;;;;1.45;0.60;;;0.80;99.90;;;;;;5034924;28;20085;-77
2021/01/14 01:56:45;;;;;;;2.15;0.50;;;0.80;99.90;;;;;;5035163;28;20089;-77
2021/01/14 01:59:13;;;;;;;1.35;0.60;;;0.80;99.90;;;;;;5034571;28;20128;-77
2021/01/14 02:01:39;;;;;;;7.43;0.80;;;0.70;99.90;;;;;;5035246;28;20053;-77
2021/01/14 02:04:07;;;;;;;4.10;0.50;;;0.70;99.90;;;;;;5036721;28;20053;-78
2021/01/14 02:07:00;;;;;;;2.85;0.47;;;0.60;99.90;;;;;;5036361;28;20052;-78
2021/01/14 02:09:27;;;;;;;2.30;0.60;;;0.70;99.90;;;;;;5036688;28;20107;-78
2021/01/14 02:12:02;;;;;;;2.10;1.00;;;0.70;99.90;;;;;;5034456;28;20085;-77
2021/01/14 02:14:31;;;;;;;2.20;0.50;;;0.70;99.90;;;;;;5035164;28;20076;-77
2021/01/14 02:16:57;;;;;;;3.30;0.70;;;0.60;99.90;;;;;;5036463;28;20418;-77
2021/01/14 02:19:38;;;;;;;9.05;0.73;;;0.60;99.90;;;;;;5036592;28;20081;-77
2021/01/14 02:22:12;;;;;;;4.68;0.52;;;0.60;99.90;;;;;;5036329;28;20132;-78
2021/01/14 02:25:14;;;;;;;6.45;0.98;;;0.50;99.90;;;;;;5037366;28;20060;-78
2021/01/14 02:27:41;;;;;;;3.28;0.60;;;0.50;99.90;;;;;;5036214;28;20053;-78
2021/01/14 02:30:12;;;;;;;3.80;0.57;;;0.40;99.90;;;;;;5035358;28;20084;-78
2021/01/14 02:32:41;;;;;;;5.32;1.00;;;0.40;99.90;;;;;;5036079;28;20096;-78
2021/01/14 02:35:08;;;;;;;8.38;1.35;;;0.30;99.90;;;;;;5035651;28;20041;-78
2021/01/14 02:37:34;;;;;;;1.73;0.60;;;0.20;99.90;;;;;;5036105;28;20073;-78
2021/01/14 02:40:00;;;;;;;1.95;0.75;;;0.20;99.90;;;;;;5034765;28;20072;-78
2021/01/14 02:42:27;;;;;;;3.10;0.85;;;0.10;99.90;;;;;;5036068;28;20045;-78
2021/01/14 02:44:53;;;;;;;4.80;0.80;;;0.10;99.90;;;;;;5035565;28;20052;-78
2021/01/14 02:50:11;;;;;;;3.85;0.68;;;0.20;99.90;;;;;;5036146;28;20085;-78
2021/01/14 02:52:39;;;;;;;5.30;1.00;;;0.30;99.90;;;;;;5035302;28;20050;-78
2021/01/14 02:55:07;;;;;;;5.75;1.00;;;0.40;99.90;;;;;;5035848;28;20045;-78
2021/01/14 02:57:34;;;;;;;3.10;0.75;;;0.40;99.90;;;;;;5035484;28;20132;-77
2021/01/14 03:00:00;;;;;;;3.65;0.90;;;0.50;99.90;;;;;;5035301;28;20073;-78
2021/01/14 03:02:28;;;;;;;10.60;1.40;;;0.50;99.90;;;;;;5036251;28;20045;-77
2021/01/14 03:04:55;;;;;;;1.13;0.57;;;0.50;99.90;;;;;;5034634;28;20045;-78
2021/01/14 03:07:21;;;;;;;3.65;1.00;;;0.50;99.90;;;;;;5035754;28;20346;-78
2021/01/14 03:09:47;;;;;;;6.50;0.85;;;0.50;99.90;;;;;;5035825;28;20049;-78
2021/01/14 03:12:13;;;;;;;5.68;0.60;;;0.50;99.90;;;;;;5035655;28;20092;-78
2021/01/14 03:14:40;;;;;;;2.25;0.63;;;0.50;99.90;;;;;;5034013;28;20395;-79
2021/01/14 03:17:06;;;;;;;3.80;0.75;;;0.50;99.90;;;;;;5035061;28;20128;-77
2021/01/14 03:19:32;;;;;;;2.65;0.63;;;0.50;99.90;;;;;;5035544;28;20084;-78
2021/01/14 03:22:00;;;;;;;1.45;0.60;;;0.50;99.90;;;;;;5035178;28;20421;-78
2021/01/14 03:24:27;;;;;;;3.92;0.80;;;0.50;99.90;;;;;;5035627;28;20132;-78
2021/01/14 03:26:53;;;;;;;2.55;0.80;;;0.50;99.90;;;;;;5035415;28;20081;-77
2021/01/14 03:29:19;;;;;;;3.00;0.70;;;0.50;99.90;;;;;;5036212;28;20460;-78
2021/01/14 03:31:45;;;;;;;4.03;1.17;;;0.50;99.90;;;;;;5036485;28;20077;-78
2021/01/14 03:34:12;;;;;;;2.33;1.02;;;0.40;99.90;;;;;;5035786;28;20128;-77
2021/01/14 03:36:56;;;;;;;4.55;1.38;;;0.40;99.90;;;;;;5036035;28;20041;-77
2021/01/14 03:39:27;;;;;;;1.25;0.60;;;0.40;99.90;;;;;;5033947;28;20049;-78
2021/01/14 03:41:54;;;;;;;5.30;1.00;;;0.30;99.90;;;;;;5033190;28;20524;-77
2021/01/14 03:44:21;;;;;;;5.82;1.17;;;0.30;99.90;;;;;;5034271;28;20053;-77
2021/01/14 03:46:48;;;;;;;1.70;0.75;;;0.30;99.90;;;;;;5031808;28;20131;-78
2021/01/14 03:49:15;;;;;;;4.20;1.15;;;0.30;99.90;;;;;;5032193;28;20132;-77
2021/01/14 03:51:46;;;;;;;5.28;0.80;;;0.40;99.90;;;;;;5034214;28;20088;-77
2021/01/14 03:54:12;;;;;;;5.30;1.05;;;0.40;99.90;;;;;;5034776;28;20089;-77
2021/01/14 03:56:40;;;;;;;4.75;0.90;;;0.40;99.90;;;;;;5034183;28;20042;-77
2021/01/14 03:59:07;;;;;;;4.32;0.63;;;0.40;99.90;;;;;;5034577;28;20052;-78
2021/01/14 04:01:33;;;;;;;3.70;0.75;;;0.40;99.90;;;;;;5035147;28;20467;-77
2021/01/14 04:04:00;;;;;;;1.90;0.63;;;0.40;99.90;;;;;;5034621;28;20195;-78
2021/01/14 04:06:34;;;;;;;4.78;0.88;;;0.40;99.90;;;;;;5033245;28;20124;-77
2021/01/14 04:09:01;;;;;;;2.58;1.63;;;0.40;99.90;;;;;;5033739;28;20052;-77
2021/01/14 04:11:27;;;;;;;2.30;0.68;;;0.40;99.90;;;;;;5037566;28;20557;-79
2021/01/14 04:13:53;;;;;;;4.47;0.93;;;0.40;99.90;;;;;;5038681;28;20103;-79
2021/01/14 04:16:19;;;;;;;1.50;0.70;;;0.30;99.90;;;;;;5038362;28;20144;-78
2021/01/14 04:18:46;;;;;;;2.97;1.27;;;0.30;99.90;;;;;;5039344;28;20046;-78
2021/01/14 04:21:16;;;;;;;2.15;0.93;;;0.30;99.90;;;;;;5038003;28;20188;-79
2021/01/14 04:23:45;;;;;;;3.00;0.95;;;0.30;99.90;;;;;;5039302;28;20089;-78
2021/01/14 04:26:12;;;;;;;2.08;0.70;;;0.30;99.90;;;;;;5038920;28;20052;-78
2021/01/14 04:28:40;;;;;;;2.42;1.20;;;0.30;99.90;;;;;;5038489;28;20049;-78
2021/01/14 04:31:07;;;;;;;3.13;0.90;;;0.20;99.90;;;;;;5038192;28;20088;-79
2021/01/14 04:33:33;;;;;;;2.20;0.85;;;0.30;99.90;;;;;;5037308;28;20049;-78
2021/01/14 04:36:01;;;;;;;3.42;0.90;;;0.30;99.90;;;;;;5037869;28;20493;-78
2021/01/14 04:38:28;;;;;;;4.10;1.23;;;0.30;99.90;;;;;;5037823;28;20490;-79
2021/01/14 04:41:00;;;;;;;3.83;0.95;;;0.30;99.90;;;;;;5038179;28;20049;-77
2021/01/14 04:43:28;;;;;;;3.75;0.82;;;0.20;99.90;;;;;;5038777;28;20561;-78
2021/01/14 04:46:03;;;;;;;4.15;1.38;;;0.20;99.90;;;;;;5038023;28;20130;-78
2021/01/14 04:48:30;;;;;;;3.88;0.88;;;0.20;99.90;;;;;;5035743;28;20053;-78
2021/01/14 04:51:04;;;;;;;3.22;1.00;;;0.30;99.90;;;;;;5036724;28;20430;-78
2021/01/14 04:53:33;;;;;;;2.00;0.70;;;0.30;99.90;;;;;;5038552;28;20108;-77
2021/01/14 04:56:01;;;;;;;6.32;0.90;;;0.20;99.90;;;;;;5036021;28;20077;-78
2021/01/14 04:58:29;;;;;;;3.72;1.10;;;0.20;99.90;;;;;;5037644;28;20049;-78
2021/01/14 05:00:58;;;;;;;1.42;0.68;;;0.30;99.90;;;;;;5037599;28;20056;-78
2021/01/14 05:03:28;;;;;;;3.60;0.90;;;0.30;99.90;;;;;;5036950;28;20136;-78
2021/01/14 05:05:55;;;;;;;1.10;0.70;;;0.30;99.90;;;;;;5037025;28;20062;-79
2021/01/14 05:08:30;;;;;;;4.25;1.05;;;0.30;99.90;;;;;;5035551;28;20107;-78
2021/01/14 05:10:57;;;;;;;2.20;1.02;;;0.30;99.90;;;;;;5036316;28;20136;-78
2021/01/14 05:13:24;;;;;;;2.47;0.98;;;0.30;99.90;;;;;;5036972;28;20088;-79
2021/01/14 05:15:50;;;;;;;3.35;0.73;;;0.30;99.90;;;;;;5035149;28;20045;-78
2021/01/14 05:18:16;;;;;;;2.67;1.30;;;0.30;99.90;;;;;;5036835;28;20073;-78
2021/01/14 05:20:43;;;;;;;6.72;1.30;;;0.30;99.90;;;;;;5036681;28;20049;-77
2021/01/14 05:23:11;;;;;;;3.90;1.02;;;0.30;99.90;;;;;;5037442;28;20088;-78
2021/01/14 05:25:44;;;;;;;11.57;2.00;;;0.30;99.90;;;;;;5037301;28;20196;-78
2021/01/14 05:28:13;;;;;;;6.13;1.35;;;0.30;99.90;;;;;;5037386;28;20089;-78
2021/01/14 05:30:40;;;;;;;2.33;0.90;;;0.30;99.90;;;;;;5037143;28;20053;-78
2021/01/14 05:33:15;;;;;;;17.95;2.92;;;0.30;99.90;;;;;;5037025;28;20084;-79
2021/01/14 05:35:49;;;;;;;45.28;4.07;;;0.30;99.90;;;;;;5035776;28;20049;-78
2021/01/14 05:38:22;;;;;;;4.53;1.13;;;0.30;99.90;;;;;;5036655;28;20053;-78
2021/01/14 05:43:49;;;;;;;1.23;1.10;;;0.30;99.90;;;;;;5035685;28;19928;-77
2021/01/14 05:46:27;;;;;;;3.03;1.00;;;0.30;99.90;;;;;;5033552;28;20092;-78
2021/01/14 05:48:54;;;;;;;2.45;1.00;;;0.30;99.90;;;;;;5034110;28;20144;-78
2021/01/14 05:51:23;;;;;;;2.67;1.05;;;0.40;99.90;;;;;;5035219;28;20075;-78
2021/01/14 05:53:56;;;;;;;4.40;1.30;;;0.40;99.90;;;;;;5034849;28;20417;-78
2021/01/14 05:56:43;;;;;;;2.67;1.33;;;0.40;99.90;;;;;;5035441;28;20077;-78
2021/01/14 05:59:11;;;;;;;2.58;1.30;;;0.40;99.90;;;;;;5035521;28;20514;-79
2021/01/14 06:01:58;;;;;;;4.18;1.30;;;0.40;99.90;;;;;;5035036;28;20525;-77
2021/01/14 06:04:27;;;;;;;9.55;1.80;;;0.40;99.90;;;;;;5036737;28;20498;-79
2021/01/14 06:06:57;;;;;;;5.40;1.73;;;0.30;99.90;;;;;;5037983;28;20518;-79
2021/01/14 06:09:23;;;;;;;2.10;1.48;;;0.40;99.90;;;;;;5036311;28;20049;-79
2021/01/14 06:12:06;;;;;;;2.42;1.33;;;0.40;99.90;;;;;;5036827;28;20085;-78
2021/01/14 06:14:33;;;;;;;6.17;1.43;;;0.40;99.90;;;;;;5036911;28;20132;-79
2021/01/14 06:17:06;;;;;;;3.28;1.15;;;0.40;99.90;;;;;;5035456;28;20334;-78
2021/01/14 06:19:34;;;;;;;6.10;1.50;;;0.40;99.90;;;;;;5035896;28;20144;-79
2021/01/14 06:22:01;;;;;;;2.40;1.23;;;0.40;99.90;;;;;;5035164;28;20050;-78
2021/01/14 06:24:37;;;;;;;1.40;1.30;;;0.50;99.90;;;;;;5036773;28;20092;-78
2021/01/14 06:27:06;;;;;;;2.65;1.30;;;0.50;99.90;;;;;;5034649;28;20103;-78
2021/01/14 06:29:34;;;;;;;3.17;1.25;;;0.50;99.90;;;;;;5035592;28;20053;-79
2021/01/14 06:32:08;;;;;;;2.78;1.33;;;0.40;99.90;;;;;;5035814;28;20045;-78
2021/01/14 06:34:37;;;;;;;2.33;1.30;;;0.40;99.90;;;;;;5035251;28;20046;-78
2021/01/14 06:37:12;;;;;;;3.28;1.40;;;0.40;99.90;;;;;;5035419;28;20049;-78
2021/01/14 06:39:40;;;;;;;2.95;1.40;;;0.50;99.90;;;;;;5035812;28;20049;-79
2021/01/14 06:42:16;;;;;;;4.15;1.50;;;0.50;99.90;;;;;;5034711;28;20525;-79
2021/01/14 06:44:51;;;;;;;1.25;1.15;;;0.50;99.90;;;;;;5033695;28;20053;-77
2021/01/14 06:47:41;;;;;;;7.55;1.55;;;0.50;99.90;;;;;;5034732;28;20057;-79
2021/01/14 06:52:52;;;;;;;1.73;1.05;;;0.60;99.90;;;;;;5034342;28;20088;-78
2021/01/14 06:55:23;;;;;;;1.25;1.13;;;0.60;99.90;;;;;;5032916;28;20133;-78
2021/01/14 06:58:13;;;;;;;4.32;1.95;;;0.70;99.90;;;;;;5034233;28;20041;-78
2021/01/14 07:00:41;;;;;;;35.42;12.88;;;0.70;99.90;;;;;;5033534;28;20108;-78
2021/01/14 07:03:14;;;;;;;2.65;2.03;;;0.70;99.90;;;;;;5033679;28;20050;-78
2021/01/14 07:05:52;;;;;;;5.28;1.60;;;0.70;99.90;;;;;;5032335;28;20543;-78
2021/01/14 07:08:41;;;;;;;1.30;1.20;;;0.70;99.90;;;;;;5033855;28;20470;-78
2021/01/14 07:11:16;;;;;;;1.30;1.20;;;0.70;99.90;;;;;;5033876;28;20054;-78
2021/01/14 07:13:47;;;;;;;5.47;1.60;;;0.80;99.90;;;;;;5034212;28;20132;-78
2021/01/14 07:16:16;;;;;;;2.05;1.10;;;0.90;99.90;;;;;;5033951;28;20137;-78
2021/01/14 07:18:44;;;;;;;4.93;1.52;;;0.80;99.90;;;;;;5033443;28;20076;-78
2021/01/14 07:21:38;;;;;;;2.55;1.20;;;0.80;99.90;;;;;;5034123;28;20473;-78
2021/01/14 07:24:19;;;;;;;;;;;0.80;99.90;;;;;;5034372;28;20103;-78
2021/01/14 07:26:55;;;;;;;1.25;1.23;;;0.90;99.90;;;;;;5034144;28;19921;-78
2021/01/14 07:29:22;;;;;;;4.15;1.70;;;0.90;99.90;;;;;;5034252;28;20057;-78
2021/01/14 07:31:51;;;;;;;9.98;1.63;;;0.90;99.90;;;;;;5032807;28;20461;-78
2021/01/14 07:34:38;;;;;;;13.50;2.03;;;1.00;99.90;;;;;;5033118;28;20103;-78
2021/01/14 07:37:10;;;;;;;4.65;1.40;;;1.10;99.90;;;;;;5032249;28;20045;-78
2021/01/14 07:39:50;;;;;;;3.50;2.00;;;1.20;99.90;;;;;;5032519;28;20089;-78
2021/01/14 07:42:21;;;;;;;4.60;1.20;;;1.20;99.90;;;;;;5032642;28;20046;-78
2021/01/14 07:44:54;;;;;;;4.75;1.48;;;1.20;99.90;;;;;;5033717;28;20046;-78
2021/01/14 07:47:37;;;;;;;5.45;1.70;;;1.20;99.90;;;;;;5038239;28;20076;-79
2021/01/14 07:50:27;;;;;;;5.82;3.03;;;1.20;99.90;;;;;;5038045;28;20049;-79
2021/01/14 07:52:57;;;;;;;2.88;1.25;;;1.20;99.90;;;;;;5049318;28;20117;-79
2021/01/14 07:55:25;;;;;;;3.85;1.60;;;1.20;99.90;;;;;;5047976;28;20081;-79
2021/01/14 07:58:20;;;;;;;3.53;1.67;;;1.20;99.90;;;;;;5040110;28;20049;-79
2021/01/14 08:01:08;;;;;;;1.85;1.63;;;1.20;99.90;;;;;;5039677;28;20053;-79
2021/01/14 08:03:42;;;;;;;3.03;1.67;;;1.20;99.90;;;;;;5039355;28;20474;-79
2021/01/14 08:06:18;;;;;;;2.55;1.80;;;1.20;99.90;;;;;;5037860;28;20045;-79
2021/01/14 08:09:04;;;;;;;3.63;2.08;;;1.10;99.90;;;;;;5043546;28;20505;-78
2021/01/14 08:11:35;;;;;;;3.92;3.42;;;1.10;99.90;;;;;;5054054;28;20140;-78
2021/01/14 08:14:08;;;;;;;4.40;1.80;;;1.10;99.90;;;;;;5056387;28;20111;-78
2021/01/14 08:16:41;;;;;;;2.70;1.60;;;1.10;99.90;;;;;;5056477;28;20079;-78
2021/01/14 08:19:11;;;;;;;1.75;1.63;;;1.20;99.90;;;;;;5057098;28;20079;-78
2021/01/14 08:21:38;;;;;;;4.25;3.50;;;1.10;99.90;;;;;;5056654;28;20458;-78
2021/01/14 08:24:31;;;;;;;4.63;2.78;;;1.10;99.90;;;;;;5045274;28;20043;-78
2021/01/14 08:27:03;;;;;;;1.77;1.67;;;1.10;99.90;;;;;;5044601;28;20168;-78
2021/01/14 08:29:41;;;;;;;2.53;2.10;;;1.00;99.90;;;;;;5042861;28;20132;-78
2021/01/14 08:32:29;;;;;;;3.55;1.42;;;1.10;99.90;;;;;;5042048;28;20037;-79
2021/01/14 08:34:56;;;;;;;4.55;2.78;;;1.10;99.90;;;;;;5036393;28;20128;-78
2021/01/14 08:37:35;;;;;;;2.33;1.50;;;1.10;99.90;;;;;;5036372;28;20144;-78
2021/01/14 08:40:10;;;;;;;2.65;1.50;;;1.20;99.90;;;;;;5035320;28;20077;-78
2021/01/14 08:42:39;;;;;;;3.90;2.00;;;1.20;99.90;;;;;;5035518;28;20487;-78
2021/01/14 08:45:12;;;;;;;5.25;2.50;;;1.30;99.90;;;;;;5036717;28;20095;-78
2021/01/14 08:47:56;;;;;;;2.67;1.75;;;1.40;99.90;;;;;;5036199;28;20509;-78
2021/01/14 08:50:40;;;;;;;4.43;1.48;;;1.60;99.90;;;;;;5036072;28;20073;-78
2021/01/14 08:53:31;;;;;;;5.72;2.17;;;1.80;99.90;;;;;;5036064;28;20045;-78
2021/01/14 08:56:02;;;;;;;3.42;1.88;;;1.90;99.90;;;;;;5034623;28;20057;-78
2021/01/14 08:58:43;;;;;;;4.70;2.30;;;1.90;99.90;;;;;;5036471;28;20475;-78
2021/01/14 09:01:16;;;;;;;3.80;2.03;;;1.80;99.90;;;;;;5036136;28;20465;-78
2021/01/14 09:03:43;;;;;;;;;;;1.90;99.90;;;;;;5036670;28;20171;-78
2021/01/14 09:06:09;;;;;;;4.45;1.83;;;1.90;99.90;;;;;;5036638;28;20023;-78
2021/01/14 09:08:36;;;;;;;2.83;1.70;;;2.00;99.90;;;;;;5035525;28;20073;-78
2021/01/14 09:11:02;;;;;;;10.02;2.10;;;2.20;99.90;;;;;;5035717;28;20057;-78
2021/01/14 09:13:30;;;;;;;5.43;1.55;;;2.30;99.90;;;;;;5048721;28;20045;-78
2021/01/14 09:16:05;;;;;;;4.72;1.88;;;2.30;99.90;;;;;;5055637;28;20420;-77
2021/01/14 09:18:36;;;;;;;3.13;1.40;;;2.50;99.90;;;;;;5055664;28;20386;-78
2021/01/14 09:21:04;;;;;;;5.57;1.88;;;2.50;99.90;;;;;;5055484;28;20425;-78
2021/01/14 09:23:35;;;;;;;3.40;1.85;;;2.60;99.90;;;;;;5055262;28;20111;-78
2021/01/14 09:26:20;;;;;;;3.13;1.63;;;2.60;99.90;;;;;;5054615;28;20160;-78
2021/01/14 09:28:51;;;;;;;3.72;2.15;;;2.10;99.90;;;;;;5055271;28;20072;-78
2021/01/14 09:31:19;;;;;;;2.38;2.10;;;2.20;99.90;;;;;;5055286;28;20480;-78
2021/01/14 09:33:48;;;;;;;2.13;1.95;;;2.10;99.90;;;;;;5055429;28;20057;-78
2021/01/14 09:36:17;;;;;;;3.22;1.40;;;1.90;99.90;;;;;;5055161;28;20060;-78
2021/01/14 09:38:48;;;;;;;3.28;1.70;;;1.90;99.90;;;;;;5055292;28;20148;-78
2021/01/14 09:41:26;;;;;;;6.93;4.30;;;1.90;99.90;;;;;;5057203;28;20179;-79
2021/01/14 09:43:57;;;;;;;3.30;1.50;;;2.00;99.90;;;;;;5058711;28;20124;-80
2021/01/14 09:46:25;;;;;;;3.67;2.10;;;2.10;99.90;;;;;;5058659;28;20064;-79
2021/01/14 09:49:25;;;;;;;14.07;9.55;;;1.90;99.90;;;;;;5058103;28;20068;-79
2021/01/14 09:51:51;;;;;;;3.90;3.25;;;1.80;99.90;;;;;;5051673;28;20131;-78
2021/01/14 09:54:19;;;;;;;9.02;5.88;;;1.60;99.90;;;;;;5053088;28;20148;-78
2021/01/14 09:56:52;;;;;;;2.90;2.70;;;1.50;99.90;;;;;;5054777;28;20124;-78
2021/01/14 09:59:26;;;;;;;3.95;2.45;;;1.50;99.90;;;;;;5053750;28;20421;-78
2021/01/14 10:01:58;;;;;;;4.28;2.22;;;1.50;99.90;;;;;;5054425;28;20049;-78
2021/01/14 10:04:29;;;;;;;9.25;2.55;;;1.60;99.90;;;;;;5055000;28;20045;-78
2021/01/14 10:06:59;;;;;;;3.22;2.65;;;1.70;99.90;;;;;;5054843;28;20390;-78
2021/01/14 10:09:26;;;;;;;4.03;2.58;;;1.60;99.90;;;;;;5055349;28;20083;-78
2021/01/14 10:11:53;;;;;;;35.35;21.67;;;1.50;99.90;;;;;;5053738;28;20211;-78
2021/01/14 10:14:21;;;;;;;62.13;30.27;;;1.50;99.90;;;;;;5055513;28;20092;-78
2021/01/14 10:16:48;;;;;;;6.10;3.42;;;1.40;99.90;;;;;;5055311;28;20048;-79
2021/01/14 10:19:20;;;;;;;4.43;2.80;;;1.30;99.90;;;;;;5054586;28;20650;-78
2021/01/14 10:21:48;;;;;;;14.63;12.48;;;1.40;99.90;;;;;;5054566;28;20053;-78
2021/01/14 10:24:27;;;;;;;13.07;11.18;;;1.40;99.90;;;;;;5054248;28;20044;-78
2021/01/14 10:26:54;;;;;;;5.60;3.00;;;1.50;99.90;;;;;;5054464;28;20102;-78
2021/01/14 10:29:40;;;;;;;3.13;2.83;;;1.50;99.90;;;;;;5054372;28;20099;-78
2021/01/14 10:32:08;;;;;;;10.35;8.82;;;1.50;99.90;;;;;;5054555;28;20049;-78
2021/01/14 10:34:45;;;;;;;8.43;6.07;;;1.40;99.90;;;;;;5053240;28;20547;-78
2021/01/14 10:37:26;;;;;;;5.82;5.10;;;1.30;99.90;;;;;;5054747;28;20073;-78
2021/01/14 10:39:54;;;;;;;10.77;5.13;;;1.30;99.90;;;;;;5054390;28;20091;-78
2021/01/14 10:42:34;;;;;;;5.45;4.95;;;1.20;99.90;;;;;;5053362;28;20104;-78
2021/01/14 10:45:09;;;;;;;6.05;3.55;;;1.30;99.90;;;;;;5054669;28;20048;-78
2021/01/14 10:47:37;;;;;;;5.05;4.55;;;1.40;99.90;;;;;;5052629;28;20103;-78
2021/01/14 10:50:27;;;;;;;4.57;4.10;;;1.30;99.90;;;;;;5054360;28;20431;-78
2021/01/14 10:53:04;;;;;;;7.35;5.10;;;1.30;99.90;;;;;;5053100;28;20056;-78
2021/01/14 10:55:32;;;;;;;5.30;4.60;;;1.30;99.90;;;;;;5053875;28;20049;-78
2021/01/14 10:58:06;;;;;;;8.07;4.70;;;1.30;99.90;;;;;;5054350;28;20399;-78
2021/01/14 11:00:40;;;;;;;5.53;4.13;;;1.40;99.90;;;;;;5054377;28;20049;-78
2021/01/14 11:03:14;;;;;;;6.20;4.45;;;1.50;99.90;;;;;;5054060;28;20061;-78
2021/01/14 11:05:55;;;;;;;7.95;4.18;;;1.70;99.90;;;;;;5053276;28;20088;-78
2021/01/14 11:08:23;;;;;;;5.28;4.03;;;1.80;99.90;;;;;;5054282;28;20055;-78
2021/01/14 11:11:06;;;;;;;9.07;4.93;;;1.80;99.90;;;;;;5052845;28;20052;-78
2021/01/14 11:13:43;;;;;;;4.18;3.55;;;1.90;99.90;;;;;;5054348;28;20061;-78
2021/01/14 11:16:11;;;;;;;6.82;4.22;;;2.10;99.90;;;;;;5052991;28;20513;-79
2021/01/14 11:18:48;;;;;;;22.25;11.13;;;2.10;99.90;;;;;;5054675;28;20053;-78
2021/01/14 11:21:16;;;;;;;11.10;5.20;;;2.00;99.90;;;;;;5054515;28;20122;-78
2021/01/14 11:23:42;;;;;;;5.50;4.00;;;2.30;99.90;;;;;;5054132;28;20049;-78
2021/01/14 11:26:09;;;;;;;3.83;3.33;;;2.60;99.90;;;;;;5052278;28;20072;-78
2021/01/14 11:28:38;;;;;;;4.93;3.75;;;2.60;99.90;;;;;;5053073;28;20088;-78
2021/01/14 11:31:05;;;;;;;24.15;5.40;;;2.70;99.90;;;;;;5053677;28;20134;-79
2021/01/14 11:33:32;;;;;;;23.88;5.25;;;3.00;99.90;;;;;;5055083;28;20103;-79
2021/01/14 11:35:58;;;;;;;15.25;3.90;;;3.10;99.90;;;;;;5056371;28;20459;-79
2021/01/14 11:38:25;;;;;;;7.22;3.83;;;3.00;99.90;;;;;;5054814;28;20147;-79
2021/01/14 11:40:52;;;;;;;5.63;2.80;;;3.20;99.90;;;;;;5055801;28;20045;-79
2021/01/14 11:43:19;;;;;;;2.97;2.70;;;3.40;99.90;;;;;;5055946;28;20084;-79
2021/01/14 11:45:45;;;;;;;3.72;2.67;;;3.40;99.90;;;;;;5055374;28;20045;-79
2021/01/14 11:48:12;;;;;;;4.95;2.70;;;3.40;99.90;;;;;;5054791;28;20056;-78
2021/01/14 11:50:38;;;;;;;4.97;3.45;;;3.60;99.90;;;;;;5054933;28;20084;-79
2021/01/14 11:53:05;;;;;;;7.10;3.92;;;3.80;99.90;;;;;;5055119;28;20053;-78
2021/01/14 11:55:31;;;;;;;4.18;3.03;;;3.80;99.90;;;;;;5054955;28;20462;-79
2021/01/14 11:57:57;;;;;;;7.10;4.50;;;4.10;99.90;;;;;;5054873;28;20052;-78
2021/01/14 12:00:23;;;;;;;4.10;3.47;;;4.00;99.90;;;;;;5055080;28;20131;-78
2021/01/14 12:02:50;;;;;;;3.38;2.90;;;4.10;99.90;;;;;;5054428;28;20049;-78
2021/01/14 12:05:16;;;;;;;4.68;3.40;;;4.00;99.90;;;;;;5054907;28;20150;-78
2021/01/14 12:07:42;;;;;;;28.80;20.13;;;3.90;99.90;;;;;;5055385;28;20241;-78
2021/01/14 12:10:09;;;;;;;9.70;8.80;;;4.10;99.90;;;;;;5055198;28;20405;-79
2021/01/14 12:12:36;;;;;;;9.75;6.03;;;4.10;99.90;;;;;;5054890;28;20107;-78
2021/01/14 12:15:05;;;;;;;6.85;5.15;;;4.00;99.90;;;;;;5055172;28;20080;-79
2021/01/14 12:17:34;;;;;;;6.75;3.53;;;4.20;99.90;;;;;;5055596;28;20095;-79
2021/01/14 12:20:00;;;;;;;5.13;3.17;;;4.30;99.90;;;;;;5055274;28;20072;-78
2021/01/14 12:22:27;;;;;;;3.60;2.72;;;4.20;99.90;;;;;;5055364;28;20136;-78
2021/01/14 12:24:54;;;;;;;11.93;8.25;;;3.90;99.90;;;;;;5055232;28;20116;-78
2021/01/14 12:27:21;;;;;;;22.33;16.48;;;3.60;99.90;;;;;;5055321;28;20049;-78
2021/01/14 12:29:47;;;;;;;8.30;4.70;;;3.70;99.90;;;;;;5055154;28;20045;-79
2021/01/14 12:32:13;;;;;;;6.65;3.28;;;3.70;99.90;;;;;;5057151;28;20049;-78
2021/01/14 12:34:40;;;;;;;6.75;3.10;;;3.80;99.90;;;;;;5056982;28;20071;-79
2021/01/14 12:37:06;;;;;;;4.32;2.53;;;4.00;99.90;;;;;;5056987;28;20053;-79
2021/01/14 12:39:32;;;;;;;4.28;2.50;;;4.00;99.90;;;;;;5057981;28;20083;-78
2021/01/14 12:41:59;;;;;;;2.38;2.17;;;3.90;99.90;;;;;;5058152;28;20068;-79
2021/01/14 12:44:25;;;;;;;5.47;2.65;;;3.70;99.90;;;;;;5058403;28;20463;-78
2021/01/14 12:46:51;;;;;;;3.55;2.30;;;3.60;99.90;;;;;;5058256;28;20049;-79
2021/01/14 12:49:19;;;;;;;2.97;2.45;;;3.40;99.90;;;;;;5058052;28;20056;-78
2021/01/14 12:51:46;;;;;;;3.35;1.90;;;3.20;99.90;;;;;;5056822;28;20049;-79
2021/01/14 12:54:12;;;;;;;4.35;2.50;;;3.00;99.90;;;;;;5056560;28;20087;-78
2021/01/14 12:56:41;;;;;;;4.25;2.08;;;3.20;99.90;;;;;;5057907;28;20099;-78
2021/01/14 12:59:09;;;;;;;3.33;2.05;;;3.10;99.90;;;;;;5057811;28;20131;-78
2021/01/14 13:01:38;;;;;;;3.70;1.42;;;3.30;99.90;;;;;;5057749;28;20077;-78
2021/01/14 13:04:07;;;;;;;4.95;2.10;;;3.20;99.90;;;;;;5056533;28;20090;-78
2021/01/14 13:06:35;;;;;;;2.70;1.70;;;3.30;99.90;;;;;;5056922;28;20495;-78
2021/01/14 13:09:09;;;;;;;4.43;2.15;;;3.30;99.90;;;;;;5057366;28;20049;-78
2021/01/14 13:11:38;;;;;;;7.93;2.40;;;3.30;99.90;;;;;;5057759;28;20145;-78
2021/01/14 13:14:05;;;;;;;2.58;1.85;;;3.40;99.90;;;;;;5057621;28;20055;-79
2021/01/14 13:16:39;;;;;;;3.72;2.05;;;3.20;99.90;;;;;;5056332;28;20128;-78
2021/01/14 13:19:07;;;;;;;2.28;1.83;;;3.20;99.90;;;;;;5057105;28;20072;-78
2021/01/14 13:21:41;;;;;;;3.03;2.70;;;3.30;99.90;;;;;;5058352;28;20048;-79